createdAt,value
2019-04-29T00:00:40.292Z,97.7508
2019-04-29T00:01:43.283Z,97.6959
2019-04-29T00:02:45.353Z,97.7798
2019-04-29T00:03:48.303Z,97.5174
2019-04-29T00:04:51.312Z,97.4578
2019-04-29T00:05:54.304Z,97.9522
2019-04-29T00:06:57.281Z,97.9202
2019-04-29T00:08:00.353Z,97.2305
2019-04-29T00:09:03.296Z,97.5631
2019-04-29T00:10:06.293Z,97.5906
2019-04-29T00:11:09.283Z,97.4304
2019-04-29T00:12:12.327Z,97.5540
2019-04-29T00:13:15.277Z,97.8103
2019-04-29T00:14:18.280Z,97.9126
2019-04-29T00:15:21.304Z,98.0484
2019-04-29T00:16:24.317Z,97.8943
2019-04-29T00:17:27.273Z,97.9217
2019-04-29T00:18:30.308Z,97.8256
2019-04-29T00:19:36.100Z,97.9248
2019-04-29T00:20:39.266Z,98.1369
2019-04-29T00:21:41.299Z,97.9339
2019-04-29T00:22:44.277Z,97.7295
2019-04-29T00:23:47.294Z,97.7752
2019-04-29T00:24:50.311Z,98.1643
2019-04-29T00:25:53.323Z,97.7111
2019-04-29T00:26:56.293Z,97.7066
2019-04-29T00:27:59.317Z,97.6379
2019-04-29T00:29:02.339Z,98.0682
2019-04-29T00:30:05.323Z,97.9217
2019-04-29T00:31:08.322Z,97.9858
2019-04-29T00:32:11.278Z,97.9202
2019-04-29T00:33:14.291Z,97.8485
2019-04-29T00:34:17.354Z,97.5631
2019-04-29T00:35:20.313Z,97.6196
2019-04-29T00:36:23.277Z,97.7966
2019-04-29T00:37:26.272Z,97.5723
2019-04-29T00:38:29.330Z,97.6272
2019-04-29T00:39:32.335Z,97.6730
2019-04-29T00:40:35.311Z,97.7157
2019-04-29T00:41:38.278Z,97.6974
2019-04-29T00:42:41.278Z,97.3114
2019-04-29T00:43:44.359Z,97.8531
2019-04-29T00:44:47.308Z,97.9294
2019-04-29T00:45:50.300Z,97.9538
2019-04-29T00:46:53.281Z,97.7111
2019-04-29T00:47:56.338Z,97.6272
2019-04-29T00:48:59.283Z,97.8210
2019-04-29T00:50:02.347Z,97.5906
2019-04-29T00:51:05.347Z,97.5051
2019-04-29T00:52:08.309Z,97.5372
2019-04-29T00:53:11.289Z,97.4716
2019-04-29T00:54:14.303Z,97.6196
2019-04-29T00:55:17.345Z,97.8119
2019-04-29T00:56:20.270Z,97.9385
2019-04-29T00:57:23.302Z,97.7554
2019-04-29T00:58:26.263Z,97.7142
2019-04-29T00:59:29.303Z,97.9583
2019-04-29T01:00:32.318Z,97.5280
2019-04-29T01:01:35.319Z,97.4502
2019-04-29T01:02:38.283Z,97.2259
2019-04-29T01:03:41.405Z,96.8994
2019-04-29T01:04:44.309Z,97.3800
2019-04-29T01:05:47.338Z,97.2580
2019-04-29T01:06:50.276Z,97.7615
2019-04-29T01:07:53.325Z,97.8241
2019-04-29T01:08:56.299Z,98.1811
2019-04-29T01:09:58.288Z,98.6770
2019-04-29T01:11:01.361Z,98.0774
2019-04-29T01:12:04.327Z,97.9400
2019-04-29T01:13:07.317Z,98.1399
2019-04-29T01:14:10.309Z,98.2544
2019-04-29T01:15:13.311Z,98.2956
2019-04-29T01:16:16.345Z,98.4100
2019-04-29T01:17:19.284Z,98.3017
2019-04-29T01:18:22.305Z,98.3368
2019-04-29T01:19:25.266Z,98.1033
2019-04-29T01:20:28.278Z,98.0117
2019-04-29T01:21:30.333Z,98.0133
2019-04-29T01:22:33.297Z,97.7386
2019-04-29T01:23:36.301Z,98.1033
2019-04-29T01:24:39.333Z,98.0774
2019-04-29T01:25:42.269Z,97.8469
2019-04-29T01:26:45.304Z,97.8759
2019-04-29T01:27:48.312Z,97.5051
2019-04-29T01:28:51.288Z,97.4807
2019-04-29T01:29:54.295Z,97.7188
2019-04-29T01:30:57.295Z,97.4273
2019-04-29T01:32:00.333Z,97.3663
2019-04-29T01:33:03.310Z,97.3388
2019-04-29T01:34:06.253Z,97.4716
2019-04-29T01:35:09.283Z,97.3617
2019-04-29T01:36:12.338Z,97.6104
2019-04-29T01:37:15.317Z,98.0163
2019-04-29T01:38:18.283Z,97.2992
2019-04-29T01:39:21.298Z,96.7224
2019-04-29T01:40:24.275Z,97.4075
2019-04-29T01:41:27.287Z,98.1048
2019-04-29T01:42:30.306Z,97.4411
2019-04-29T01:43:33.318Z,97.3755
2019-04-29T01:44:36.273Z,97.9675
2019-04-29T01:45:39.305Z,98.1125
2019-04-29T01:46:42.317Z,97.9492
2019-04-29T01:47:45.340Z,97.9629
2019-04-29T01:48:48.305Z,97.9675
2019-04-29T01:49:51.315Z,98.5245
2019-04-29T01:50:54.290Z,98.2773
2019-04-29T01:51:57.302Z,98.1094
2019-04-29T01:53:00.326Z,97.5357
2019-04-29T01:54:03.287Z,97.2992
2019-04-29T01:55:08.327Z,97.2702
2019-04-29T01:56:11.280Z,96.9375
2019-04-29T01:57:13.292Z,97.2213
2019-04-29T01:58:16.347Z,97.2305
2019-04-29T01:59:19.288Z,97.1511
2019-04-29T02:00:22.327Z,97.3800
2019-04-29T02:01:25.314Z,97.6974
2019-04-29T02:02:28.290Z,97.8759
2019-04-29T02:03:31.310Z,97.8424
2019-04-29T02:04:34.345Z,98.0529
2019-04-29T02:05:37.287Z,97.6867
2019-04-29T02:06:40.302Z,96.8780
2019-04-29T02:07:43.290Z,97.4365
2019-04-29T02:08:46.337Z,96.9787
2019-04-29T02:09:49.285Z,97.6776
2019-04-29T02:10:52.282Z,97.7203
2019-04-29T02:11:55.283Z,97.6501
2019-04-29T02:12:58.279Z,98.0209
2019-04-29T02:14:00.343Z,98.4848
2019-04-29T02:15:03.296Z,98.2132
2019-04-29T02:16:06.274Z,98.6587
2019-04-29T02:17:09.298Z,98.7533
2019-04-29T02:18:12.261Z,98.8647
2019-04-29T02:19:15.346Z,98.9654
2019-04-29T02:20:18.270Z,98.9868
2019-04-29T02:21:21.329Z,98.8968
2019-04-29T02:22:24.280Z,98.6709
2019-04-29T02:23:27.325Z,98.4009
2019-04-29T02:24:30.312Z,98.2605
2019-04-29T02:25:33.289Z,98.2727
2019-04-29T02:26:36.278Z,98.2132
2019-04-29T02:27:40.325Z,98.3963
2019-04-29T02:28:43.300Z,98.2864
2019-04-29T02:29:46.302Z,98.0438
2019-04-29T02:30:49.333Z,98.5031
2019-04-29T02:31:52.308Z,98.2559
2019-04-29T02:32:55.303Z,98.2055
2019-04-29T02:33:58.390Z,98.2467
2019-04-29T02:35:01.329Z,98.9105
2019-04-29T02:36:04.320Z,98.6084
2019-04-29T02:37:07.276Z,98.9105
2019-04-29T02:38:10.299Z,98.7320
2019-04-29T02:39:13.296Z,99.1302
2019-04-29T02:40:15.343Z,99.2447
2019-04-29T02:41:18.298Z,99.1348
2019-04-29T02:42:21.286Z,99.1943
2019-04-29T02:43:24.267Z,99.2172
2019-04-29T02:44:27.284Z,99.4034
2019-04-29T02:45:30.347Z,99.5285
2019-04-29T02:46:33.286Z,99.5102
2019-04-29T02:47:36.311Z,99.5422
2019-04-29T02:48:41.283Z,99.7375
2019-04-29T02:49:44.316Z,99.6551
2019-04-29T02:50:47.301Z,99.5514
2019-04-29T02:51:50.331Z,99.6200
2019-04-29T02:52:53.268Z,99.8245
2019-04-29T02:53:56.324Z,99.7391
2019-04-29T02:54:59.264Z,99.9573
2019-04-29T02:56:02.329Z,99.9084
2019-04-29T02:57:05.359Z,99.8795
2019-04-29T02:58:12.270Z,99.9023
2019-04-29T02:59:15.307Z,99.9069
2019-04-29T03:00:17.334Z,100.0000
2019-04-29T03:01:20.336Z,100.0000
2019-04-29T03:02:23.268Z,100.0000
2019-04-29T03:03:26.307Z,100.0000
2019-04-29T03:04:29.275Z,100.0000
2019-04-29T03:05:31.290Z,100.0000
2019-04-29T03:06:34.340Z,100.0000
2019-04-29T03:07:37.281Z,100.0000
2019-04-29T03:08:40.317Z,100.0000
2019-04-29T03:09:43.307Z,100.0000
2019-04-29T03:10:46.303Z,99.9664
2019-04-29T03:11:48.327Z,99.9252
2019-04-29T03:12:51.281Z,99.9939
2019-04-29T03:13:54.280Z,99.9985
2019-04-29T03:14:57.280Z,100.0000
2019-04-29T03:16:00.282Z,100.0000
2019-04-29T03:17:03.283Z,100.0000
2019-04-29T03:18:06.290Z,100.0000
2019-04-29T03:19:09.297Z,100.0000
2019-04-29T03:20:13.368Z,100.0000
2019-04-29T03:21:16.298Z,100.0000
2019-04-29T03:22:19.335Z,100.0000
2019-04-29T03:23:22.294Z,100.0000
2019-04-29T03:24:25.271Z,100.0000
2019-04-29T03:25:28.277Z,100.0000
2019-04-29T03:26:31.277Z,100.0000
2019-04-29T03:27:34.323Z,99.9680
2019-04-29T03:28:37.281Z,99.8245
2019-04-29T03:29:40.308Z,99.5132
2019-04-29T03:30:43.309Z,99.7345
2019-04-29T03:31:46.294Z,99.6277
2019-04-29T03:32:49.346Z,99.8123
2019-04-29T03:33:52.301Z,99.8520
2019-04-29T03:34:55.300Z,99.8535
2019-04-29T03:35:58.305Z,99.7482
2019-04-29T03:37:00.351Z,99.6063
2019-04-29T03:38:03.298Z,99.6048
2019-04-29T03:39:06.311Z,99.6735
2019-04-29T03:40:09.338Z,99.4034
2019-04-29T03:41:12.323Z,99.2584
2019-04-29T03:42:15.288Z,99.2996
2019-04-29T03:43:17.416Z,98.9609
2019-04-29T03:44:20.286Z,99.0646
2019-04-29T03:45:23.274Z,99.5132
2019-04-29T03:46:26.317Z,99.5865
2019-04-29T03:47:29.284Z,99.7421
2019-04-29T03:48:32.307Z,99.3820
2019-04-29T03:49:35.304Z,99.4263
2019-04-29T03:50:38.294Z,99.6460
2019-04-29T03:51:41.334Z,99.7101
2019-04-29T03:52:44.290Z,99.9130
2019-04-29T03:53:47.309Z,100.0000
2019-04-29T03:54:50.303Z,100.0000
2019-04-29T03:55:53.319Z,100.0000
2019-04-29T03:56:56.265Z,100.0000
2019-04-29T03:57:59.310Z,100.0000
2019-04-29T03:59:02.316Z,99.7345
2019-04-29T04:00:06.345Z,99.7055
2019-04-29T04:01:09.288Z,99.8291
2019-04-29T04:02:12.316Z,99.9619
2019-04-29T04:03:15.321Z,100.0000
2019-04-29T04:04:18.306Z,100.0000
2019-04-29T04:05:21.306Z,99.8535
2019-04-29T04:06:24.288Z,99.9069
2019-04-29T04:07:27.344Z,99.7986
2019-04-29T04:08:30.310Z,99.9298
2019-04-29T04:09:33.331Z,99.9939
2019-04-29T04:10:36.289Z,99.8535
2019-04-29T04:11:39.330Z,99.7665
2019-04-29T04:12:42.289Z,99.7574
2019-04-29T04:13:45.301Z,99.8444
2019-04-29T04:14:48.330Z,99.5315
2019-04-29T04:15:51.285Z,99.5361
2019-04-29T04:16:53.284Z,99.5560
2019-04-29T04:17:56.314Z,99.4690
2019-04-29T04:18:59.291Z,99.4675
2019-04-29T04:20:02.350Z,99.1852
2019-04-29T04:21:05.299Z,99.1745
2019-04-29T04:22:08.311Z,98.7762
2019-04-29T04:23:11.271Z,98.6435
2019-04-29T04:24:14.304Z,98.7671
2019-04-29T04:25:17.348Z,98.8281
2019-04-29T04:26:20.318Z,98.6252
2019-04-29T04:27:23.276Z,98.9364
2019-04-29T04:28:26.315Z,98.7320
2019-04-29T04:29:29.324Z,98.7579
2019-04-29T04:30:32.334Z,98.7457
2019-04-29T04:31:35.275Z,98.6938
2019-04-29T04:32:38.273Z,98.5626
2019-04-29T04:33:41.323Z,98.4512
2019-04-29T04:34:44.351Z,97.8012
2019-04-29T04:35:47.303Z,98.0346
2019-04-29T04:36:50.323Z,98.0346
2019-04-29T04:37:52.307Z,97.9492
2019-04-29T04:38:55.281Z,98.4421
2019-04-29T04:39:57.309Z,98.7030
2019-04-29T04:41:00.386Z,98.3246
2019-04-29T04:42:03.287Z,98.3703
2019-04-29T04:43:06.352Z,97.8515
2019-04-29T04:44:09.272Z,97.8149
2019-04-29T04:45:11.309Z,98.0041
2019-04-29T04:46:14.317Z,98.1125
2019-04-29T04:47:17.303Z,98.3658
2019-04-29T04:48:20.272Z,98.2284
2019-04-29T04:49:23.320Z,98.3963
2019-04-29T04:50:26.369Z,98.2910
2019-04-29T04:51:29.303Z,97.9629
2019-04-29T04:52:32.279Z,97.7798
2019-04-29T04:53:35.304Z,97.6135
2019-04-29T04:54:38.337Z,97.5036
2019-04-29T04:55:41.351Z,97.8195
2019-04-29T04:56:44.323Z,97.6974
2019-04-29T04:57:47.287Z,98.0087
2019-04-29T04:58:50.284Z,98.1765
2019-04-29T04:59:53.316Z,97.7188
2019-04-29T05:00:56.285Z,98.2132
2019-04-29T05:01:59.344Z,97.7050
2019-04-29T05:03:02.283Z,97.6089
2019-04-29T05:04:05.296Z,96.7773
2019-04-29T05:05:08.299Z,97.2747
2019-04-29T05:06:11.342Z,97.3343
2019-04-29T05:07:14.302Z,97.4304
2019-04-29T05:08:17.277Z,97.1618
2019-04-29T05:09:20.326Z,97.0474
2019-04-29T05:10:23.272Z,97.0047
2019-04-29T05:11:26.355Z,97.0459
2019-04-29T05:12:29.293Z,97.0749
2019-04-29T05:13:32.304Z,96.9085
2019-04-29T05:14:35.303Z,96.7437
2019-04-29T05:15:38.300Z,96.6430
2019-04-29T05:16:41.297Z,96.6430
2019-04-29T05:17:44.280Z,96.4111
2019-04-29T05:18:47.310Z,96.6949
2019-04-29T05:19:50.262Z,96.6308
2019-04-29T05:20:53.316Z,96.5209
2019-04-29T05:21:55.366Z,97.0962
2019-04-29T05:22:58.313Z,96.7666
2019-04-29T05:24:01.294Z,96.5942
2019-04-29T05:25:04.315Z,96.4248
2019-04-29T05:26:07.298Z,95.7977
2019-04-29T05:27:10.320Z,96.2264
2019-04-29T05:28:13.320Z,96.1135
2019-04-29T05:29:16.286Z,95.7748
2019-04-29T05:30:18.343Z,95.9579
2019-04-29T05:31:21.316Z,96.2921
2019-04-29T05:32:24.375Z,95.9167
2019-04-29T05:33:27.302Z,96.1227
2019-04-29T05:34:30.284Z,96.0677
2019-04-29T05:35:33.310Z,96.5118
2019-04-29T05:36:38.187Z,95.6924
2019-04-29T05:37:42.343Z,95.4345
2019-04-29T05:38:45.285Z,95.9030
2019-04-29T05:39:48.296Z,95.9060
2019-04-29T05:40:51.287Z,95.9792
2019-04-29T05:41:54.311Z,96.2280
2019-04-29T05:42:57.297Z,96.3607
2019-04-29T05:44:00.284Z,96.5576
2019-04-29T05:45:03.284Z,96.3333
2019-04-29T05:46:07.554Z,96.0250
2019-04-29T05:47:11.302Z,95.6832
2019-04-29T05:48:14.328Z,95.1019
2019-04-29T05:49:17.341Z,95.0973
2019-04-29T05:50:20.307Z,95.7320
2019-04-29T05:51:27.178Z,95.3948
2019-04-29T05:52:34.654Z,94.6578
2019-04-29T05:53:39.350Z,95.1370
2019-04-29T05:54:42.278Z,95.3262
2019-04-29T05:55:45.335Z,95.1888
2019-04-29T05:56:50.279Z,93.6461
2019-04-29T05:57:55.883Z,93.8888
2019-04-29T05:59:01.351Z,94.1222
2019-04-29T06:00:04.304Z,94.3969
2019-04-29T06:01:07.367Z,94.6838
2019-04-29T06:02:10.285Z,94.4686
2019-04-29T06:03:13.313Z,94.7860
2019-04-29T06:04:18.194Z,94.6441
2019-04-29T06:05:21.340Z,94.5388
2019-04-29T06:06:24.299Z,94.1573
2019-04-29T06:07:27.321Z,93.6736
2019-04-29T06:08:34.323Z,93.7774
2019-04-29T06:09:38.331Z,93.3791
2019-04-29T06:10:42.102Z,94.8852
2019-04-29T06:11:45.302Z,94.7616
2019-04-29T06:12:48.285Z,94.6349
2019-04-29T06:13:51.281Z,94.8043
2019-04-29T06:14:54.348Z,93.7743
2019-04-29T06:15:57.296Z,94.0490
2019-04-29T06:17:02.837Z,94.4823
2019-04-29T06:18:08.273Z,95.0835
2019-04-29T06:19:11.301Z,94.9126
2019-04-29T06:20:17.954Z,94.4335
2019-04-29T06:21:22.315Z,94.6242
2019-04-29T06:22:25.277Z,93.9437
2019-04-29T06:23:28.307Z,94.0810
2019-04-29T06:24:31.319Z,93.3120
2019-04-29T06:25:34.330Z,91.4626
2019-04-29T06:26:37.331Z,92.5475
2019-04-29T06:27:40.294Z,92.3323
2019-04-29T06:28:42.346Z,92.6650
2019-04-29T06:29:45.325Z,93.0282
2019-04-29T06:30:50.258Z,93.5638
2019-04-29T06:31:55.307Z,93.1640
2019-04-29T06:32:58.378Z,93.3608
2019-04-29T06:34:05.238Z,93.5348
2019-04-29T06:35:10.693Z,92.7565
2019-04-29T06:36:17.316Z,92.7352
2019-04-29T06:37:20.309Z,93.2845
2019-04-29T06:38:23.314Z,93.2708
2019-04-29T06:39:26.293Z,93.6950
2019-04-29T06:40:30.728Z,93.7087
2019-04-29T06:41:40.676Z,92.7260
2019-04-29T06:42:45.326Z,92.2408
2019-04-29T06:43:48.284Z,92.1630
2019-04-29T06:44:51.312Z,92.6024
2019-04-29T06:45:54.346Z,92.5612
2019-04-29T06:46:57.311Z,92.3781
2019-04-29T06:47:59.375Z,90.6935
2019-04-29T06:49:10.024Z,91.4260
2019-04-29T06:50:11.325Z,91.5618
2019-04-29T06:51:14.269Z,91.4855
2019-04-29T06:52:17.290Z,91.7510
2019-04-29T06:53:21.375Z,91.5801
2019-04-29T06:54:26.324Z,90.1030
2019-04-29T06:55:29.331Z,90.1717
2019-04-29T06:56:32.301Z,90.8385
2019-04-29T06:57:35.297Z,90.5364
2019-04-29T06:58:38.547Z,90.5364
2019-04-29T06:59:42.900Z,90.6462
2019-04-29T07:00:51.068Z,90.5058
2019-04-29T07:01:54.317Z,90.9545
2019-04-29T07:02:57.310Z,91.9295
2019-04-29T07:04:02.355Z,91.6274
2019-04-29T07:05:05.291Z,90.2983
2019-04-29T07:06:08.356Z,90.4814
2019-04-29T07:07:11.301Z,90.9407
2019-04-29T07:08:14.269Z,90.7530
2019-04-29T07:09:17.294Z,90.2495
2019-04-29T07:10:21.617Z,90.6828
2019-04-29T07:11:27.349Z,90.8888
2019-04-29T07:12:30.313Z,91.6869
2019-04-29T07:13:33.307Z,89.7673
2019-04-29T07:14:38.607Z,90.0069
2019-04-29T07:15:43.433Z,90.2846
2019-04-29T07:16:50.340Z,90.0481
2019-04-29T07:17:53.320Z,91.3466
2019-04-29T07:18:56.274Z,91.4015
2019-04-29T07:20:02.038Z,91.0094
2019-04-29T07:21:07.437Z,90.6096
2019-04-29T07:22:14.340Z,91.0643
2019-04-29T07:23:17.380Z,91.3619
2019-04-29T07:24:20.563Z,89.9016
2019-04-29T07:25:24.753Z,91.0399
2019-04-29T07:26:31.265Z,90.1534
2019-04-29T07:27:40.438Z,90.6142
2019-04-29T07:28:42.304Z,90.6981
2019-04-29T07:29:45.305Z,89.2882
2019-04-29T07:31:01.224Z,89.7505
2019-04-29T07:31:56.301Z,89.8863
2019-04-29T07:33:00.413Z,90.5608
2019-04-29T07:34:03.298Z,90.1198
2019-04-29T07:35:09.928Z,89.7444
2019-04-29T07:36:14.310Z,89.4423
2019-04-29T07:37:17.352Z,89.6620
2019-04-29T07:38:20.337Z,89.9870
2019-04-29T07:39:22.353Z,89.5445
2019-04-29T07:40:25.323Z,89.3248
2019-04-29T07:41:30.361Z,89.0272
2019-04-29T07:42:33.392Z,89.2470
2019-04-29T07:43:38.465Z,90.0801
2019-04-29T07:44:44.529Z,89.6681
2019-04-29T07:45:47.312Z,89.9519
2019-04-29T07:46:57.046Z,88.8197
2019-04-29T07:48:01.702Z,88.6091
2019-04-29T07:49:06.350Z,88.6549
2019-04-29T07:50:09.382Z,89.8360
2019-04-29T07:51:12.332Z,88.0415
2019-04-29T07:52:16.162Z,89.3248
2019-04-29T07:53:20.885Z,88.7922
2019-04-29T07:54:27.310Z,88.4825
2019-04-29T07:55:30.875Z,88.8975
2019-04-29T07:56:37.910Z,88.1804
2019-04-29T07:57:43.306Z,87.6753
2019-04-29T07:58:48.562Z,88.0980
2019-04-29T07:59:51.325Z,88.4642
2019-04-29T08:00:56.237Z,89.3050
2019-04-29T08:01:59.885Z,89.6620
2019-04-29T08:03:04.345Z,87.8676
2019-04-29T08:04:07.287Z,88.4123
2019-04-29T08:05:10.330Z,88.8975
2019-04-29T08:06:13.291Z,89.2271
2019-04-29T08:07:16.309Z,89.0715
2019-04-29T08:08:21.332Z,89.5705
2019-04-29T08:09:25.328Z,89.0318
2019-04-29T08:10:29.744Z,89.9916
2019-04-29T08:11:33.301Z,88.5283
2019-04-29T08:12:36.313Z,88.5145
2019-04-29T08:13:39.285Z,89.2134
2019-04-29T08:14:42.298Z,89.0532
2019-04-29T08:15:45.310Z,89.1173
2019-04-29T08:16:48.321Z,88.8441
2019-04-29T08:17:55.493Z,89.9748
2019-04-29T08:18:59.296Z,88.0568
2019-04-29T08:20:05.163Z,87.9774
2019-04-29T08:21:10.273Z,88.8792
2019-04-29T08:22:18.364Z,89.3141
2019-04-29T08:23:21.315Z,88.9311
2019-04-29T08:24:23.323Z,88.8716
2019-04-29T08:25:27.181Z,88.9158
2019-04-29T08:26:33.657Z,88.8808
2019-04-29T08:27:40.621Z,87.8264
2019-04-29T08:28:44.344Z,88.4489
2019-04-29T08:29:47.287Z,88.6564
2019-04-29T08:30:50.316Z,89.0944
2019-04-29T08:31:57.365Z,88.2124
2019-04-29T08:33:01.349Z,88.7343
2019-04-29T08:34:04.323Z,88.6885
2019-04-29T08:35:07.309Z,88.4733
2019-04-29T08:36:10.308Z,88.4123
2019-04-29T08:37:12.303Z,88.3085
2019-04-29T08:38:15.371Z,88.1331
2019-04-29T08:39:18.299Z,88.0919
2019-04-29T08:40:21.352Z,87.2908
2019-04-29T08:41:28.563Z,87.4159
2019-04-29T08:42:32.311Z,87.6661
2019-04-29T08:43:35.295Z,88.2628
2019-04-29T08:44:38.296Z,88.4001
2019-04-29T08:45:41.331Z,87.8508
2019-04-29T08:46:51.375Z,87.6112
2019-04-29T08:47:52.350Z,87.8096
2019-04-29T08:48:55.337Z,86.8940
2019-04-29T08:49:58.342Z,88.7968
2019-04-29T08:51:01.300Z,86.8284
2019-04-29T08:52:04.323Z,86.7689
2019-04-29T08:53:06.351Z,86.8940
2019-04-29T08:54:09.357Z,86.5171
2019-04-29T08:55:12.341Z,86.4958
2019-04-29T08:56:15.283Z,85.8320
2019-04-29T08:57:18.365Z,85.0858
2019-04-29T08:58:21.315Z,84.7517
2019-04-29T08:59:24.902Z,84.2832
2019-04-29T09:00:29.273Z,82.7329
2019-04-29T09:01:34.095Z,83.1952
2019-04-29T09:02:41.438Z,82.8611
2019-04-29T09:03:47.333Z,81.6419
2019-04-29T09:04:53.819Z,82.7375
2019-04-29T09:06:05.038Z,81.6876
2019-04-29T09:07:12.513Z,81.3306
2019-04-29T09:08:13.669Z,81.1521
2019-04-29T09:09:28.404Z,79.5361
2019-04-29T09:10:25.334Z,79.1257
2019-04-29T09:11:28.358Z,79.4232
2019-04-29T09:12:31.320Z,78.8510
2019-04-29T09:13:36.400Z,78.4115
2019-04-29T09:14:39.280Z,79.3805
2019-04-29T09:15:42.354Z,78.0529
2019-04-29T09:16:45.320Z,77.8714
2019-04-29T09:17:48.356Z,78.2177
2019-04-29T09:18:51.325Z,77.3907
2019-04-29T09:19:54.339Z,77.1832
2019-04-29T09:20:57.301Z,77.4823
2019-04-29T09:22:00.318Z,77.1832
2019-04-29T09:23:03.392Z,78.2605
2019-04-29T09:24:06.319Z,77.9385
2019-04-29T09:25:09.326Z,78.7778
2019-04-29T09:26:12.330Z,78.0774
2019-04-29T09:27:15.315Z,76.9741
2019-04-29T09:28:27.024Z,77.4945
2019-04-29T09:29:26.337Z,76.7712
2019-04-29T09:30:29.286Z,75.9716
2019-04-29T09:31:32.325Z,76.6659
2019-04-29T09:32:38.236Z,76.6949
2019-04-29T09:33:44.274Z,77.1695
2019-04-29T09:34:51.349Z,77.7249
2019-04-29T09:35:54.275Z,76.7956
2019-04-29T09:36:57.339Z,77.7111
2019-04-29T09:38:00.284Z,77.1191
2019-04-29T09:39:03.333Z,77.8836
2019-04-29T09:40:06.298Z,78.4146
2019-04-29T09:41:09.311Z,78.7778
2019-04-29T09:42:13.195Z,79.5407
2019-04-29T09:43:21.368Z,79.1577
2019-04-29T09:44:26.385Z,79.1333
2019-04-29T09:45:29.291Z,78.3139
2019-04-29T09:46:34.465Z,77.3663
2019-04-29T09:47:38.290Z,76.6400
2019-04-29T09:48:40.323Z,77.7920
2019-04-29T09:49:43.315Z,77.6471
2019-04-29T09:50:46.322Z,75.8984
2019-04-29T09:51:49.363Z,75.7702
2019-04-29T09:52:52.336Z,75.5734
2019-04-29T09:53:55.335Z,74.4579
2019-04-29T09:54:59.523Z,75.8755
2019-04-29T09:56:06.299Z,74.2763
2019-04-29T09:57:09.302Z,75.2117
2019-04-29T09:58:12.314Z,75.3399
2019-04-29T09:59:15.310Z,73.9498
2019-04-29T10:00:18.304Z,71.6670
2019-04-29T10:01:21.304Z,73.8766
2019-04-29T10:02:26.357Z,74.6288
2019-04-29T10:03:32.298Z,75.0134
2019-04-29T10:04:35.310Z,75.2560
2019-04-29T10:05:38.314Z,75.5276
2019-04-29T10:06:41.337Z,75.1064
2019-04-29T10:07:46.373Z,75.5459
2019-04-29T10:08:50.369Z,74.4411
2019-04-29T10:09:57.305Z,74.4671
2019-04-29T10:11:00.319Z,73.9223
2019-04-29T10:12:03.312Z,74.9065
2019-04-29T10:13:06.299Z,74.0795
2019-04-29T10:14:09.341Z,74.3770
2019-04-29T10:15:12.296Z,73.4295
2019-04-29T10:16:15.349Z,74.6639
2019-04-29T10:17:18.335Z,74.2565
2019-04-29T10:18:25.159Z,71.5831
2019-04-29T10:19:29.352Z,73.1350
2019-04-29T10:20:32.300Z,71.7128
2019-04-29T10:21:35.365Z,72.6650
2019-04-29T10:22:38.295Z,72.6635
2019-04-29T10:23:41.318Z,72.7016
2019-04-29T10:24:44.297Z,73.6568
2019-04-29T10:25:47.302Z,74.0887
2019-04-29T10:26:50.396Z,73.9773
2019-04-29T10:27:53.298Z,73.4020
2019-04-29T10:28:56.339Z,73.2921
2019-04-29T10:29:59.322Z,72.4590
2019-04-29T10:31:02.357Z,71.5389
2019-04-29T10:32:06.847Z,72.9152
2019-04-29T10:33:12.862Z,72.6085
2019-04-29T10:34:19.309Z,71.5877
2019-04-29T10:35:22.311Z,71.3405
2019-04-29T10:36:26.262Z,72.8252
2019-04-29T10:37:31.460Z,72.3430
2019-04-29T10:38:40.228Z,71.6899
2019-04-29T10:39:43.306Z,72.0913
2019-04-29T10:40:46.390Z,72.1965
2019-04-29T10:41:49.323Z,71.6075
2019-04-29T10:42:52.368Z,72.7565
2019-04-29T10:43:55.599Z,71.2596
2019-04-29T10:44:59.334Z,70.9880
2019-04-29T10:46:02.307Z,70.6401
2019-04-29T10:47:05.326Z,69.8299
2019-04-29T10:48:08.338Z,69.9260
2019-04-29T10:49:11.349Z,69.9123
2019-04-29T10:50:15.552Z,69.9550
2019-04-29T10:51:23.305Z,72.9747
2019-04-29T10:52:28.324Z,74.9249
2019-04-29T10:53:31.340Z,69.4682
2019-04-29T10:54:34.285Z,69.6941
2019-04-29T10:55:37.295Z,69.4179
2019-04-29T10:56:41.074Z,70.3349
2019-04-29T10:57:44.864Z,69.7032
2019-04-29T10:58:52.382Z,70.9483
2019-04-29T10:59:55.298Z,70.2510
2019-04-29T11:00:58.472Z,68.7953
2019-04-29T11:02:05.092Z,70.3243
2019-04-29T11:03:09.305Z,71.4931
2019-04-29T11:04:12.391Z,70.9880
2019-04-29T11:05:15.331Z,68.9570
2019-04-29T11:06:18.314Z,68.7465
2019-04-29T11:07:26.509Z,69.6208
2019-04-29T11:08:29.372Z,70.6950
2019-04-29T11:09:32.301Z,69.4240
2019-04-29T11:10:35.341Z,71.7586
2019-04-29T11:11:38.276Z,73.8094
2019-04-29T11:12:41.320Z,70.1228
2019-04-29T11:13:48.393Z,71.5114
2019-04-29T11:14:52.305Z,72.0195
2019-04-29T11:15:55.326Z,72.0317
2019-04-29T11:16:58.311Z,71.8730
2019-04-29T11:18:03.516Z,72.9793
2019-04-29T11:19:07.333Z,71.3832
2019-04-29T11:20:11.132Z,70.8736
2019-04-29T11:21:18.284Z,70.4387
2019-04-29T11:22:21.344Z,68.2780
2019-04-29T11:23:24.303Z,67.8813
2019-04-29T11:24:27.355Z,68.7129
2019-04-29T11:25:30.327Z,69.1173
2019-04-29T11:26:33.256Z,67.7699
2019-04-29T11:27:36.346Z,67.2892
2019-04-29T11:28:39.298Z,65.7191
2019-04-29T11:29:44.427Z,67.2679
2019-04-29T11:30:49.554Z,68.0995
2019-04-29T11:31:54.149Z,69.0333
2019-04-29T11:33:00.115Z,67.7806
2019-04-29T11:34:05.501Z,67.7653
2019-04-29T11:35:08.363Z,67.3030
2019-04-29T11:36:11.321Z,68.9113
2019-04-29T11:37:17.923Z,66.0212
2019-04-29T11:38:22.316Z,66.8055
2019-04-29T11:39:25.334Z,68.6320
2019-04-29T11:40:42.756Z,66.1967
2019-04-29T11:41:36.320Z,65.4230
2019-04-29T11:42:41.680Z,66.3188
2019-04-29T11:43:46.600Z,66.1906
2019-04-29T11:44:57.149Z,66.5995
2019-04-29T11:46:01.343Z,65.7160
2019-04-29T11:47:04.314Z,65.8488
2019-04-29T11:48:07.308Z,67.1565
2019-04-29T11:49:10.315Z,66.4424
2019-04-29T11:50:14.346Z,68.4718
2019-04-29T11:51:17.353Z,68.3833
2019-04-29T11:52:23.787Z,72.3339
2019-04-29T11:53:28.332Z,68.4154
2019-04-29T11:54:31.319Z,67.4495
2019-04-29T11:55:34.309Z,67.8843
2019-04-29T11:56:39.585Z,67.5364
2019-04-29T11:57:43.349Z,67.0756
2019-04-29T11:58:46.300Z,67.3945
2019-04-29T11:59:49.305Z,68.1285
2019-04-29T12:00:52.331Z,67.1427
2019-04-29T12:01:55.293Z,66.7948
2019-04-29T12:02:58.353Z,67.7882
2019-04-29T12:04:01.383Z,67.1214
2019-04-29T12:05:08.192Z,66.8788
2019-04-29T12:06:16.351Z,67.5334
2019-04-29T12:07:21.202Z,68.7129
2019-04-29T12:08:24.335Z,67.9484
2019-04-29T12:09:30.866Z,66.7414
2019-04-29T12:10:39.258Z,68.3330
2019-04-29T12:11:43.359Z,68.5573
2019-04-29T12:12:47.717Z,67.8172
2019-04-29T12:13:52.313Z,67.2206
2019-04-29T12:14:55.301Z,67.2435
2019-04-29T12:15:59.338Z,67.2084
2019-04-29T12:17:02.393Z,67.3487
2019-04-29T12:18:05.283Z,67.5975
2019-04-29T12:19:08.314Z,67.2908
2019-04-29T12:20:10.352Z,67.5364
2019-04-29T12:21:13.310Z,67.1809
2019-04-29T12:22:28.190Z,67.6112
2019-04-29T12:23:24.331Z,66.2654
2019-04-29T12:24:26.330Z,66.0258
2019-04-29T12:25:29.413Z,66.7140
2019-04-29T12:26:35.012Z,67.5380
2019-04-29T12:27:40.336Z,68.2109
2019-04-29T12:28:44.525Z,66.4378
2019-04-29T12:29:48.737Z,66.4073
2019-04-29T12:30:55.345Z,66.8177
2019-04-29T12:31:58.326Z,66.7460
2019-04-29T12:33:03.115Z,67.8523
2019-04-29T12:34:06.278Z,67.9896
2019-04-29T12:35:09.346Z,68.7083
2019-04-29T12:36:12.291Z,66.4973
2019-04-29T12:37:15.284Z,67.6387
2019-04-29T12:38:18.369Z,66.7689
2019-04-29T12:39:42.264Z,67.2496
2019-04-29T12:40:29.282Z,66.8086
2019-04-29T12:41:32.418Z,68.4611
2019-04-29T12:42:35.719Z,66.7765
2019-04-29T12:43:43.354Z,65.8244
2019-04-29T12:44:46.382Z,66.1128
2019-04-29T12:45:49.334Z,67.1977
2019-04-29T12:46:52.322Z,66.8879
2019-04-29T12:47:55.335Z,67.9164